Time;durP1;ratioP1;P1;durP2;ratioP2;P2;SDS_P1;SDS_P2;PMS_P1;PMS_P2;Temp;Humidity;BMP_temperature;BMP_pressure;BME280_temperature;BME280_humidity;BME280_pressure;Samples;Min_cycle;Max_cycle;Signal;HPM_P1;HPM_P2
2023/11/14 00:02:08;;;;;;;21.63;2.97;;;11.90;99.90;;;;;;5053933;28;20379;-70
2023/11/14 00:04:36;;;;;;;19.77;3.88;;;11.90;99.90;;;;;;5054283;28;20036;-71
2023/11/14 00:07:05;;;;;;;23.15;3.47;;;12.00;99.90;;;;;;5047163;28;20110;-70
2023/11/14 00:09:32;;;;;;;34.88;3.97;;;12.00;99.90;;;;;;5047056;28;20427;-71
2023/11/14 00:11:58;;;;;;;32.35;3.97;;;12.00;99.90;;;;;;5051788;28;20120;-71
2023/11/14 00:14:26;;;;;;;28.15;3.70;;;11.90;99.90;;;;;;5048408;28;20104;-71
2023/11/14 00:16:51;;;;;;;;;;;12.00;99.90;;;;;;5068134;28;20025;-71
2023/11/14 00:19:19;;;;;;;18.27;3.13;;;12.00;99.90;;;;;;5049921;28;19995;-71
2023/11/14 00:21:45;;;;;;;26.42;3.13;;;12.00;99.90;;;;;;5052953;28;20620;-71
2023/11/14 00:24:13;;;;;;;27.35;3.72;;;12.00;99.90;;;;;;5054693;28;20100;-71
2023/11/14 00:26:41;;;;;;;29.05;3.75;;;12.00;99.90;;;;;;5059595;28;20700;-70
2023/11/14 00:29:07;;;;;;;25.42;3.75;;;12.00;99.90;;;;;;5054030;28;20034;-71
2023/11/14 00:31:35;;;;;;;24.30;3.90;;;12.00;99.90;;;;;;5056349;28;20364;-71
2023/11/14 00:34:00;;;;;;;23.38;3.83;;;12.00;99.90;;;;;;5054769;28;20108;-71
2023/11/14 00:36:26;;;;;;;24.67;3.33;;;12.00;99.90;;;;;;5055310;28;20136;-71
2023/11/14 00:38:51;;;;;;;24.23;2.97;;;12.00;99.90;;;;;;5053916;28;20064;-71
2023/11/14 00:41:19;;;;;;;19.83;3.85;;;12.00;99.90;;;;;;5067691;28;20021;-71
2023/11/14 00:43:45;;;;;;;21.77;3.03;;;12.00;99.90;;;;;;5055057;28;20028;-71
2023/11/14 00:46:12;;;;;;;28.05;3.97;;;12.10;99.90;;;;;;5068222;28;20075;-71
2023/11/14 00:48:38;;;;;;;25.77;3.47;;;12.20;99.90;;;;;;5057499;28;20588;-70
2023/11/14 00:51:04;;;;;;;27.13;3.65;;;12.10;99.90;;;;;;5058497;28;20102;-71
2023/11/14 00:53:30;;;;;;;23.58;3.28;;;12.10;99.90;;;;;;5053299;28;20028;-71
2023/11/14 00:55:58;;;;;;;23.27;3.75;;;12.10;99.90;;;;;;5053498;28;20033;-71
2023/11/14 00:58:26;;;;;;;;;;;12.10;99.90;;;;;;5066672;28;20039;-71
2023/11/14 01:00:51;;;;;;;23.95;3.38;;;12.10;99.90;;;;;;5048729;28;19913;-71
2023/11/14 01:03:18;;;;;;;29.20;3.53;;;12.20;99.90;;;;;;5053499;28;20441;-71
2023/11/14 01:05:46;;;;;;;25.27;3.95;;;12.20;99.90;;;;;;5050932;28;20024;-71
2023/11/14 01:08:11;;;;;;;19.13;3.58;;;12.20;99.90;;;;;;5048648;28;20033;-71
2023/11/14 01:10:40;;;;;;;20.35;3.20;;;12.20;99.90;;;;;;5049769;28;20090;-71
2023/11/14 01:13:08;;;;;;;26.02;3.05;;;12.20;99.90;;;;;;5055000;28;20024;-71
2023/11/14 01:15:34;;;;;;;20.65;2.50;;;12.20;99.90;;;;;;5044321;28;20035;-71
2023/11/14 01:18:00;;;;;;;23.33;3.95;;;12.10;99.90;;;;;;5065384;28;20037;-71
2023/11/14 01:20:28;;;;;;;22.75;3.03;;;12.10;99.90;;;;;;5049180;28;20040;-72
2023/11/14 01:22:53;;;;;;;18.63;3.35;;;12.20;99.90;;;;;;5051759;28;20045;-71
2023/11/14 01:25:21;;;;;;;24.80;3.47;;;12.20;99.90;;;;;;5042825;28;20609;-71
2023/11/14 01:27:47;;;;;;;26.08;4.32;;;12.10;99.90;;;;;;5048848;28;20033;-71
2023/11/14 01:30:13;;;;;;;27.55;2.88;;;12.20;99.90;;;;;;5053809;28;20040;-71
2023/11/14 01:32:40;;;;;;;26.30;3.38;;;12.20;99.90;;;;;;5056412;28;20396;-71
2023/11/14 01:35:07;;;;;;;21.10;3.15;;;12.30;99.90;;;;;;5046616;28;20582;-71
2023/11/14 01:37:33;;;;;;;33.33;3.83;;;12.30;99.90;;;;;;5052685;28;20114;-71
2023/11/14 01:40:01;;;;;;;29.15;3.20;;;12.30;99.90;;;;;;5047754;28;20361;-71
2023/11/14 01:42:26;;;;;;;;;;;12.30;99.90;;;;;;5055998;28;20116;-71
2023/11/14 01:44:59;;;;;;;25.80;3.65;;;12.30;99.90;;;;;;5050151;28;19999;-70
2023/11/14 01:47:27;;;;;;;23.90;4.10;;;12.30;99.90;;;;;;5047345;28;20021;-71
2023/11/14 01:49:53;;;;;;;26.05;3.55;;;12.30;99.90;;;;;;5049459;28;20033;-71
2023/11/14 01:52:19;;;;;;;21.50;3.35;;;12.30;99.90;;;;;;5047147;28;20025;-71
2023/11/14 01:54:45;;;;;;;25.75;3.33;;;12.30;99.90;;;;;;5051803;28;20032;-71
2023/11/14 01:57:12;;;;;;;25.23;4.07;;;12.30;99.90;;;;;;5050440;28;20389;-71
2023/11/14 01:59:40;;;;;;;17.75;3.42;;;12.30;99.90;;;;;;5046136;28;20025;-72
2023/11/14 02:02:08;;;;;;;20.83;3.53;;;12.40;99.90;;;;;;5050804;28;20022;-71
2023/11/14 02:04:37;;;;;;;24.77;3.58;;;12.40;99.90;;;;;;5051264;28;20705;-71
2023/11/14 02:07:03;;;;;;;22.27;4.47;;;12.40;99.90;;;;;;5048398;28;20155;-71
2023/11/14 02:09:29;;;;;;;28.38;4.03;;;12.30;99.90;;;;;;5046808;28;20109;-71
2023/11/14 02:11:55;;;;;;;26.38;3.42;;;12.40;99.90;;;;;;5048194;28;20183;-71
2023/11/14 02:14:21;;;;;;;26.33;3.30;;;12.40;99.90;;;;;;5048358;28;20021;-71
2023/11/14 02:16:49;;;;;;;15.93;2.88;;;12.40;99.90;;;;;;5049453;28;20105;-71
2023/11/14 02:19:17;;;;;;;32.25;3.72;;;12.40;99.90;;;;;;5043396;28;20029;-71
2023/11/14 02:21:43;;;;;;;23.67;3.45;;;12.50;99.90;;;;;;5041460;28;20542;-72
2023/11/14 02:24:14;;;;;;;25.80;3.80;;;12.50;99.90;;;;;;5039472;28;20136;-72
2023/11/14 02:26:40;;;;;;;21.23;3.10;;;12.50;99.90;;;;;;5042424;28;20025;-70
2023/11/14 02:29:08;;;;;;;17.63;3.15;;;12.60;99.90;;;;;;5046965;28;20671;-71
2023/11/14 02:31:33;;;;;;;19.80;3.30;;;12.50;99.90;;;;;;5043693;28;20039;-71
2023/11/14 02:33:59;;;;;;;21.17;2.85;;;12.50;99.90;;;;;;5046861;28;20041;-71
2023/11/14 02:36:28;;;;;;;31.23;4.07;;;12.50;99.90;;;;;;5046299;28;20408;-71
2023/11/14 02:38:54;;;;;;;17.30;3.22;;;12.50;99.90;;;;;;5045917;28;20027;-70
2023/11/14 02:41:19;;;;;;;19.05;2.95;;;12.50;99.90;;;;;;5048852;28;20029;-70
2023/11/14 02:43:45;;;;;;;24.60;3.72;;;12.50;99.90;;;;;;5041684;28;20044;-71
2023/11/14 02:46:10;;;;;;;22.48;3.17;;;12.50;99.90;;;;;;5041346;28;20386;-71
2023/11/14 02:48:36;;;;;;;19.55;3.15;;;12.50;99.90;;;;;;5045398;28;20052;-71
2023/11/14 02:51:02;;;;;;;28.65;3.78;;;12.50;99.90;;;;;;5047644;28;20036;-71
2023/11/14 02:53:28;;;;;;;22.60;3.35;;;12.50;99.90;;;;;;5040950;28;20033;-71
2023/11/14 02:55:54;;;;;;;26.05;3.92;;;12.40;99.90;;;;;;5047776;28;20433;-71
2023/11/14 02:58:19;;;;;;;22.40;3.42;;;12.40;99.90;;;;;;5049142;28;20043;-71
2023/11/14 03:00:48;;;;;;;23.27;3.60;;;12.40;99.90;;;;;;5049267;28;20024;-70
2023/11/14 03:03:14;;;;;;;23.80;3.80;;;12.40;99.90;;;;;;5050519;28;20021;-71
2023/11/14 03:05:41;;;;;;;16.08;2.90;;;12.30;99.90;;;;;;5039323;28;20120;-71
2023/11/14 03:08:09;;;;;;;20.67;3.45;;;12.40;99.90;;;;;;5046854;28;20035;-71
2023/11/14 03:10:35;;;;;;;26.38;3.53;;;12.40;99.90;;;;;;5062258;28;20029;-71
2023/11/14 03:13:09;;;;;;;17.92;3.60;;;12.40;99.90;;;;;;5061214;28;20039;-70
2023/11/14 03:15:36;;;;;;;26.77;5.03;;;12.30;99.90;;;;;;5040584;28;20017;-70
2023/11/14 03:18:02;;;;;;;27.67;3.60;;;12.30;99.90;;;;;;5048390;28;20025;-70
2023/11/14 03:20:28;;;;;;;33.40;4.78;;;12.40;99.90;;;;;;5042029;28;20493;-70
2023/11/14 03:22:55;;;;;;;27.75;2.97;;;12.40;99.90;;;;;;5045782;28;20031;-70
2023/11/14 03:25:21;;;;;;;26.33;4.25;;;12.40;99.90;;;;;;5043270;28;20017;-71
2023/11/14 03:27:49;;;;;;;24.73;3.53;;;12.40;99.90;;;;;;5049812;28;20029;-71
2023/11/14 03:30:15;;;;;;;;;;;12.40;99.90;;;;;;5041289;28;20029;-71
2023/11/14 03:32:40;;;;;;;27.55;4.00;;;12.40;99.90;;;;;;5045148;28;19966;-71
2023/11/14 03:35:06;;;;;;;23.10;3.72;;;12.40;99.90;;;;;;5050912;28;20060;-72
2023/11/14 03:37:34;;;;;;;27.35;3.88;;;12.40;99.90;;;;;;5061116;28;20029;-71
2023/11/14 03:40:05;;;;;;;25.00;3.60;;;12.40;99.90;;;;;;5056970;28;20029;-71
2023/11/14 03:42:33;;;;;;;19.88;3.55;;;12.40;99.90;;;;;;5053897;28;20017;-71
2023/11/14 03:44:58;;;;;;;;;;;12.30;99.90;;;;;;5046885;28;20021;-71
2023/11/14 03:47:24;;;;;;;28.95;3.65;;;12.30;99.90;;;;;;5062497;28;19980;-71
2023/11/14 03:49:49;;;;;;;25.95;3.65;;;12.30;99.90;;;;;;5056290;28;20118;-71
2023/11/14 03:52:15;;;;;;;26.15;4.43;;;12.30;99.90;;;;;;5044500;28;20053;-71
2023/11/14 03:54:41;;;;;;;36.35;4.97;;;12.30;99.90;;;;;;5044853;28;20086;-71
2023/11/14 03:57:06;;;;;;;28.60;3.35;;;12.20;99.90;;;;;;5052740;28;20111;-71
2023/11/14 03:59:32;;;;;;;28.92;3.95;;;12.30;99.90;;;;;;5040072;28;20025;-71
2023/11/14 04:01:58;;;;;;;24.92;3.88;;;12.20;99.90;;;;;;5041877;28;20120;-71
2023/11/14 04:04:23;;;;;;;23.73;3.67;;;12.30;99.90;;;;;;5041970;28;20029;-71
2023/11/14 04:06:51;;;;;;;27.88;3.40;;;12.40;99.90;;;;;;5045675;28;20550;-71
2023/11/14 04:09:18;;;;;;;24.08;3.33;;;12.30;99.90;;;;;;5041111;28;20391;-70
2023/11/14 04:11:48;;;;;;;29.63;3.83;;;12.30;99.90;;;;;;5048226;28;20036;-71
2023/11/14 04:14:16;;;;;;;24.15;3.20;;;12.30;99.90;;;;;;5046917;28;20021;-71
2023/11/14 04:16:44;;;;;;;23.00;3.03;;;12.30;99.90;;;;;;5040077;28;20029;-70
2023/11/14 04:19:10;;;;;;;;;;;12.30;99.90;;;;;;5047575;28;20068;-71
2023/11/14 04:21:36;;;;;;;19.20;3.55;;;12.30;99.90;;;;;;5038404;28;19955;-71
2023/11/14 04:24:04;;;;;;;30.15;3.83;;;12.30;99.90;;;;;;5048771;28;20459;-70
2023/11/14 04:26:30;;;;;;;;;;;12.30;99.90;;;;;;5043514;28;20489;-71
2023/11/14 04:28:59;;;;;;;14.68;2.53;;;12.30;99.90;;;;;;5043619;28;19912;-71
2023/11/14 04:31:24;;;;;;;23.85;3.67;;;12.30;99.90;;;;;;5044502;28;20044;-71
2023/11/14 04:33:50;;;;;;;24.27;4.10;;;12.20;99.90;;;;;;5042178;28;20607;-71
2023/11/14 04:36:15;;;;;;;22.42;3.85;;;12.20;99.90;;;;;;5047989;28;20037;-71
2023/11/14 04:38:41;;;;;;;21.15;3.88;;;12.20;99.90;;;;;;5051456;28;20021;-71
2023/11/14 04:41:09;;;;;;;31.08;4.25;;;12.20;99.90;;;;;;5041086;28;20032;-71
2023/11/14 04:43:35;;;;;;;;;;;12.20;99.90;;;;;;5039774;28;20028;-71
2023/11/14 04:46:03;;;;;;;25.10;3.95;;;12.10;99.90;;;;;;5045208;28;19909;-70
2023/11/14 04:48:29;;;;;;;26.95;4.03;;;12.10;99.90;;;;;;5043398;28;20033;-71
2023/11/14 04:50:56;;;;;;;25.45;3.78;;;12.10;99.90;;;;;;5051072;28;20041;-71
2023/11/14 04:53:22;;;;;;;16.55;3.13;;;12.10;99.90;;;;;;5047134;28;20036;-71
2023/11/14 04:55:48;;;;;;;27.85;3.70;;;12.10;99.90;;;;;;5046988;28;20029;-71
2023/11/14 04:58:13;;;;;;;27.70;4.60;;;12.10;99.90;;;;;;5050820;28;20047;-71
2023/11/14 05:00:41;;;;;;;26.65;3.60;;;12.10;99.90;;;;;;5043108;28;20497;-71
2023/11/14 05:03:09;;;;;;;26.92;4.30;;;12.10;99.90;;;;;;5046343;28;20026;-71
2023/11/14 05:05:35;;;;;;;;;;;12.10;99.90;;;;;;5044796;28;20522;-71
2023/11/14 05:08:01;;;;;;;27.42;3.53;;;12.20;99.90;;;;;;5063702;28;19919;-71
2023/11/14 05:10:28;;;;;;;24.15;3.88;;;12.10;99.90;;;;;;5045329;28;20437;-71
2023/11/14 05:12:54;;;;;;;22.23;3.50;;;12.10;99.90;;;;;;5048464;28;20033;-71
2023/11/14 05:15:22;;;;;;;24.70;3.25;;;12.10;99.90;;;;;;5049347;28;20033;-71
2023/11/14 05:17:50;;;;;;;23.85;3.53;;;12.00;99.90;;;;;;5048282;28;20116;-71
2023/11/14 05:20:16;;;;;;;27.13;3.20;;;12.00;99.90;;;;;;5045265;28;20045;-71
2023/11/14 05:22:41;;;;;;;23.50;3.13;;;12.00;99.90;;;;;;5044722;28;20503;-70
2023/11/14 05:25:10;;;;;;;22.85;3.28;;;12.00;99.90;;;;;;5046740;28;20099;-70
2023/11/14 05:27:36;;;;;;;20.35;2.95;;;12.00;99.90;;;;;;5044871;28;20025;-70
2023/11/14 05:30:04;;;;;;;13.73;2.33;;;12.00;99.90;;;;;;5045852;28;20021;-70
2023/11/14 05:32:29;;;;;;;11.45;2.20;;;12.00;99.90;;;;;;5046286;28;20021;-70
2023/11/14 05:34:57;;;;;;;20.58;2.42;;;12.00;99.90;;;;;;5044700;28;20647;-71
2023/11/14 05:37:25;;;;;;;;;;;12.00;99.90;;;;;;5043550;28;20307;-70
2023/11/14 05:39:55;;;;;;;14.73;2.10;;;12.00;99.90;;;;;;5049612;28;19909;-70
2023/11/14 05:42:21;;;;;;;13.35;2.17;;;12.00;99.90;;;;;;5042732;28;20025;-71
2023/11/14 05:44:47;;;;;;;12.80;1.95;;;12.00;99.90;;;;;;5039659;28;20032;-71
2023/11/14 05:47:15;;;;;;;11.63;1.90;;;11.90;99.90;;;;;;5045054;28;20028;-71
2023/11/14 05:49:41;;;;;;;12.25;2.47;;;11.90;99.90;;;;;;5043850;28;20056;-71
2023/11/14 05:52:07;;;;;;;12.68;2.58;;;11.90;99.90;;;;;;5043633;28;20629;-70
2023/11/14 05:54:35;;;;;;;18.48;3.10;;;12.00;99.90;;;;;;5046740;28;20059;-70
2023/11/14 05:57:01;;;;;;;18.30;3.00;;;11.90;99.90;;;;;;5040858;28;20037;-70
2023/11/14 05:59:27;;;;;;;16.27;2.33;;;11.90;99.90;;;;;;5047109;28;20028;-70
2023/11/14 06:01:53;;;;;;;16.98;2.90;;;11.90;99.90;;;;;;5039618;28;20032;-70
2023/11/14 06:04:21;;;;;;;21.17;4.13;;;11.90;99.90;;;;;;5045571;28;20029;-70
2023/11/14 06:06:49;;;;;;;12.33;3.03;;;11.90;99.90;;;;;;5048277;28;20025;-70
2023/11/14 06:09:15;;;;;;;16.48;3.08;;;11.90;99.90;;;;;;5046949;28;20767;-70
2023/11/14 06:11:41;;;;;;;22.23;3.65;;;11.90;99.90;;;;;;5067059;28;20036;-71
2023/11/14 06:14:06;;;;;;;22.58;3.88;;;11.90;99.90;;;;;;5047619;28;20040;-70
2023/11/14 06:16:37;;;;;;;21.17;3.17;;;11.90;99.90;;;;;;5044586;28;20083;-70
2023/11/14 06:19:03;;;;;;;23.90;3.92;;;11.90;99.90;;;;;;5046414;28;20021;-70
2023/11/14 06:21:29;;;;;;;19.15;3.00;;;11.90;99.90;;;;;;5046346;28;20395;-70
2023/11/14 06:23:56;;;;;;;24.73;3.53;;;12.00;99.90;;;;;;5041719;28;20037;-70
2023/11/14 06:26:22;;;;;;;26.10;2.88;;;11.90;99.90;;;;;;5046417;28;20552;-71
2023/11/14 06:28:47;;;;;;;22.52;2.92;;;11.90;99.90;;;;;;5044583;28;20052;-71
2023/11/14 06:31:13;;;;;;;21.88;2.85;;;11.90;99.90;;;;;;5043869;28;20116;-70
2023/11/14 06:33:39;;;;;;;22.15;3.08;;;12.00;99.90;;;;;;5042650;28;20024;-71
2023/11/14 06:36:05;;;;;;;22.65;3.92;;;12.00;99.90;;;;;;5041955;28;20036;-71
2023/11/14 06:38:30;;;;;;;24.23;2.85;;;12.00;99.90;;;;;;5045825;28;20044;-71
2023/11/14 06:40:58;;;;;;;35.60;4.00;;;12.00;99.90;;;;;;5041184;28;20056;-71
2023/11/14 06:43:26;;;;;;;;;;;12.10;99.90;;;;;;5044484;28;20033;-71
2023/11/14 06:45:52;;;;;;;27.13;3.28;;;12.10;99.90;;;;;;5043699;28;19915;-71
2023/11/14 06:48:17;;;;;;;27.27;3.33;;;12.10;99.90;;;;;;5064804;28;20364;-71
2023/11/14 06:50:43;;;;;;;23.90;3.50;;;12.20;99.90;;;;;;5044000;28;20254;-70
2023/11/14 06:53:08;;;;;;;24.77;3.50;;;12.20;99.90;;;;;;5038810;28;20382;-70
2023/11/14 06:55:34;;;;;;;21.13;3.25;;;12.20;99.90;;;;;;5050094;28;20044;-71
2023/11/14 06:58:00;;;;;;;32.83;3.40;;;12.20;99.90;;;;;;5040579;28;20546;-70
2023/11/14 07:00:25;;;;;;;28.65;4.05;;;12.30;99.90;;;;;;5041857;28;20021;-70
2023/11/14 07:02:53;;;;;;;19.48;3.63;;;12.20;99.90;;;;;;5050293;28;20028;-71
2023/11/14 07:05:19;;;;;;;24.67;3.10;;;12.20;99.90;;;;;;5035742;28;20022;-71
2023/11/14 07:07:47;;;;;;;21.30;3.00;;;12.20;99.90;;;;;;5043543;28;20042;-70
2023/11/14 07:10:13;;;;;;;22.00;3.50;;;12.20;99.90;;;;;;5039796;28;20040;-70
2023/11/14 07:12:39;;;;;;;19.55;2.38;;;12.20;99.90;;;;;;5045026;28;20036;-70
2023/11/14 07:15:08;;;;;;;27.85;3.88;;;12.30;99.90;;;;;;5033079;28;20475;-71
2023/11/14 07:17:35;;;;;;;24.98;3.83;;;12.30;99.90;;;;;;5038291;28;20041;-71
2023/11/14 07:20:00;;;;;;;23.02;3.40;;;12.30;99.90;;;;;;5054501;28;20025;-70
2023/11/14 07:22:26;;;;;;;24.50;3.08;;;12.40;99.90;;;;;;5046168;28;20442;-71
2023/11/14 07:24:54;;;;;;;18.73;2.80;;;12.40;99.90;;;;;;5041217;28;20531;-70
2023/11/14 07:27:20;;;;;;;;;;;12.30;99.90;;;;;;5043799;28;20124;-70
2023/11/14 07:29:48;;;;;;;20.05;2.58;;;12.30;99.90;;;;;;5038154;28;19988;-71
2023/11/14 07:32:18;;;;;;;21.50;2.90;;;12.40;99.90;;;;;;5040274;28;20121;-70
2023/11/14 07:34:44;;;;;;;13.77;2.42;;;12.40;99.90;;;;;;5061273;28;20040;-70
2023/11/14 07:37:09;;;;;;;23.13;3.30;;;12.40;99.90;;;;;;5046066;28;20036;-70
2023/11/14 07:39:35;;;;;;;18.73;2.78;;;12.40;99.90;;;;;;5048584;28;20028;-70
2023/11/14 07:42:01;;;;;;;14.88;3.63;;;12.50;99.90;;;;;;5042149;28;20519;-70
2023/11/14 07:44:28;;;;;;;22.02;4.25;;;12.40;99.90;;;;;;5047785;28;20028;-71
2023/11/14 07:46:57;;;;;;;29.98;3.85;;;12.50;99.90;;;;;;5048425;28;20029;-70
2023/11/14 07:49:22;;;;;;;27.90;4.10;;;12.40;99.90;;;;;;5041977;28;20037;-70
2023/11/14 07:51:48;;;;;;;23.85;3.25;;;12.50;99.90;;;;;;5048522;28;20447;-71
2023/11/14 07:54:14;;;;;;;17.10;2.97;;;12.50;99.90;;;;;;5043358;28;20490;-71
2023/11/14 07:56:45;;;;;;;29.50;3.20;;;12.50;99.90;;;;;;5047914;28;20029;-70
2023/11/14 07:59:12;;;;;;;22.83;3.78;;;12.50;99.90;;;;;;5062665;28;20056;-70
2023/11/14 08:01:39;;;;;;;16.38;3.55;;;12.60;99.90;;;;;;5048097;28;20025;-70
2023/11/14 08:04:10;;;;;;;27.90;4.07;;;12.60;99.90;;;;;;5042892;28;20395;-70
2023/11/14 08:06:38;;;;;;;20.02;3.72;;;12.60;99.90;;;;;;5044197;28;20028;-70
2023/11/14 08:09:04;;;;;;;25.27;4.10;;;12.60;99.90;;;;;;5063565;28;20558;-72
2023/11/14 08:11:39;;;;;;;31.58;3.83;;;12.60;99.90;;;;;;5048751;28;20032;-71
2023/11/14 08:14:07;;;;;;;22.08;2.67;;;12.70;99.90;;;;;;5043770;28;20025;-70
2023/11/14 08:16:33;;;;;;;;;;;12.60;99.90;;;;;;5047004;28;20074;-71
2023/11/14 08:19:02;;;;;;;23.73;3.70;;;12.70;99.90;;;;;;5044124;28;20324;-70
2023/11/14 08:21:30;;;;;;;31.85;3.75;;;12.70;99.90;;;;;;5051342;28;20098;-70
2023/11/14 08:23:58;;;;;;;21.13;3.20;;;12.60;99.90;;;;;;5049442;28;20025;-70
2023/11/14 08:26:24;;;;;;;20.63;3.22;;;12.70;99.90;;;;;;5045306;28;20037;-71
2023/11/14 08:28:50;;;;;;;24.42;2.85;;;12.70;99.90;;;;;;5051594;28;20061;-70
2023/11/14 08:31:18;;;;;;;27.02;3.60;;;12.60;99.90;;;;;;5052356;28;20126;-70
2023/11/14 08:33:49;;;;;;;;;;;12.70;99.90;;;;;;5050914;28;20074;-71
2023/11/14 08:36:14;;;;;;;30.55;4.72;;;12.60;99.90;;;;;;5051224;28;19970;-70
2023/11/14 08:38:45;;;;;;;35.78;3.67;;;12.70;99.90;;;;;;5057794;28;20028;-71
2023/11/14 08:41:10;;;;;;;23.55;3.42;;;12.70;99.90;;;;;;5047090;28;20033;-71
2023/11/14 08:43:40;;;;;;;25.35;3.80;;;12.70;99.90;;;;;;5041620;28;20052;-71
2023/11/14 08:46:09;;;;;;;28.30;3.50;;;12.70;99.90;;;;;;5051775;28;20108;-71
2023/11/14 08:48:37;;;;;;;18.50;3.40;;;12.80;99.90;;;;;;5047561;28;20087;-71
2023/11/14 08:51:05;;;;;;;19.92;3.90;;;12.90;99.90;;;;;;5049775;28;20103;-71
2023/11/14 08:53:30;;;;;;;;;;;12.90;99.90;;;;;;5045222;28;20454;-70
2023/11/14 08:55:58;;;;;;;25.30;3.03;;;12.90;99.90;;;;;;5066408;28;20057;-70
2023/11/14 08:58:26;;;;;;;24.15;4.38;;;12.90;99.90;;;;;;5050299;28;20560;-70
2023/11/14 09:00:55;;;;;;;29.90;4.40;;;12.90;99.90;;;;;;5051478;28;20032;-70
2023/11/14 09:03:23;;;;;;;19.35;2.80;;;12.90;99.90;;;;;;5046345;28;20035;-71
2023/11/14 09:05:48;;;;;;;32.72;4.05;;;12.90;99.90;;;;;;5048333;28;20188;-70
2023/11/14 09:08:16;;;;;;;19.65;3.30;;;13.00;99.90;;;;;;5046130;28;20424;-71
2023/11/14 09:10:43;;;;;;;;;;;13.00;99.90;;;;;;5048932;28;20368;-71
2023/11/14 09:13:11;;;;;;;34.97;5.25;;;12.90;99.90;;;;;;5048512;28;19909;-70
2023/11/14 09:15:40;;;;;;;19.85;3.30;;;12.90;99.90;;;;;;5045419;28;20017;-71
2023/11/14 09:18:06;;;;;;;;;;;12.90;99.90;;;;;;5050426;28;20433;-71
2023/11/14 09:20:34;;;;;;;19.45;3.85;;;12.90;99.90;;;;;;5050646;28;19908;-70
2023/11/14 09:23:00;;;;;;;24.17;3.55;;;12.80;99.90;;;;;;5049460;28;20025;-70
2023/11/14 09:25:26;;;;;;;21.02;3.03;;;12.80;99.90;;;;;;5050407;28;20448;-70
2023/11/14 09:27:55;;;;;;;17.17;3.28;;;12.80;99.90;;;;;;5050813;28;20109;-70
2023/11/14 09:30:21;;;;;;;24.83;3.55;;;12.80;99.90;;;;;;5043189;28;20202;-70
2023/11/14 09:32:46;;;;;;;26.77;3.38;;;12.90;99.90;;;;;;5049137;28;20032;-70
2023/11/14 09:35:14;;;;;;;31.77;3.53;;;12.80;99.90;;;;;;5051054;28;20032;-70
2023/11/14 09:37:42;;;;;;;24.73;3.00;;;12.80;99.90;;;;;;5050811;28;20115;-70
2023/11/14 09:40:13;;;;;;;;;;;12.80;99.90;;;;;;5050462;28;20505;-70
2023/11/14 09:42:39;;;;;;;18.25;3.35;;;12.80;99.90;;;;;;5050979;28;19935;-70
2023/11/14 09:45:10;;;;;;;21.55;2.95;;;12.80;99.90;;;;;;5049403;28;20036;-70
2023/11/14 09:47:36;;;;;;;25.73;3.75;;;12.80;99.90;;;;;;5051090;28;20025;-71
2023/11/14 09:50:03;;;;;;;21.48;3.53;;;12.80;99.90;;;;;;5051021;28;20038;-70
2023/11/14 09:52:31;;;;;;;16.57;3.07;;;12.90;99.90;;;;;;5050865;28;20025;-71
2023/11/14 09:55:00;;;;;;;22.20;3.55;;;12.90;99.90;;;;;;5045120;28;20052;-70
2023/11/14 09:57:26;;;;;;;21.02;3.35;;;12.90;99.90;;;;;;5048441;28;20029;-70
2023/11/14 09:59:52;;;;;;;27.67;3.60;;;13.00;99.90;;;;;;5044457;28;20025;-70
2023/11/14 10:02:17;;;;;;;25.70;3.17;;;13.00;99.90;;;;;;5046073;28;20032;-71
2023/11/14 10:04:45;;;;;;;22.90;3.53;;;13.00;99.90;;;;;;5049220;28;20494;-70
2023/11/14 10:07:19;;;;;;;30.52;3.85;;;12.90;99.90;;;;;;5050358;28;20060;-70
2023/11/14 10:09:46;;;;;;;25.27;3.47;;;12.90;99.90;;;;;;5049993;28;20023;-70
2023/11/14 10:12:30;;;;;;;22.17;3.70;;;12.80;99.90;;;;;;5047897;28;20033;-71
2023/11/14 10:14:56;;;;;;;21.92;3.75;;;12.80;99.90;;;;;;5046173;28;20031;-70
2023/11/14 10:17:29;;;;;;;20.63;3.47;;;12.80;99.90;;;;;;5050950;28;20021;-70
2023/11/14 10:20:07;;;;;;;29.58;5.90;;;12.80;99.90;;;;;;5051213;28;20667;-70
2023/11/14 10:22:46;;;;;;;27.10;3.78;;;12.80;99.90;;;;;;5048628;28;20537;-71
2023/11/14 10:25:29;;;;;;;25.48;3.47;;;12.80;99.90;;;;;;5044974;28;20051;-70
2023/11/14 10:28:04;;;;;;;25.85;3.58;;;12.80;99.90;;;;;;5044329;28;20039;-70
2023/11/14 10:30:41;;;;;;;28.08;3.83;;;12.80;99.90;;;;;;5046437;28;20072;-70
2023/11/14 10:33:08;;;;;;;26.27;3.55;;;12.80;99.90;;;;;;5045493;28;20033;-70
2023/11/14 10:35:33;;;;;;;20.08;3.47;;;12.80;99.90;;;;;;5049864;28;20205;-70
2023/11/14 10:38:24;;;;;;;27.55;3.30;;;12.90;99.90;;;;;;5045556;28;20036;-70
2023/11/14 10:40:54;;;;;;;22.52;3.92;;;12.90;99.90;;;;;;5042507;28;20035;-70
2023/11/14 10:43:29;;;;;;;26.38;4.10;;;13.00;99.90;;;;;;5044660;28;20672;-70
2023/11/14 10:45:55;;;;;;;24.45;3.85;;;13.00;99.90;;;;;;5042741;28;20054;-70
2023/11/14 10:48:24;;;;;;;21.58;4.47;;;13.00;99.90;;;;;;5042363;28;20029;-71
2023/11/14 10:50:51;;;;;;;27.48;4.05;;;13.00;99.90;;;;;;5047527;28;20159;-71
2023/11/14 10:53:17;;;;;;;27.23;3.70;;;13.00;99.90;;;;;;5047636;28;20111;-70
2023/11/14 10:55:44;;;;;;;18.75;3.45;;;13.00;99.90;;;;;;5049197;28;20155;-70
2023/11/14 10:58:12;;;;;;;26.38;4.88;;;13.10;99.90;;;;;;5047762;28;20470;-70
2023/11/14 11:00:40;;;;;;;24.70;3.95;;;13.10;99.90;;;;;;5049813;28;20414;-71
2023/11/14 11:03:06;;;;;;;;;;;13.20;99.90;;;;;;5042610;28;20025;-70
2023/11/14 11:05:32;;;;;;;27.38;3.30;;;13.20;99.90;;;;;;5046204;28;20264;-70
2023/11/14 11:08:00;;;;;;;26.02;3.75;;;13.20;99.90;;;;;;5045535;28;20025;-71
2023/11/14 11:10:32;;;;;;;32.58;4.20;;;13.20;99.90;;;;;;5047074;28;20120;-70
2023/11/14 11:13:00;;;;;;;25.67;4.55;;;13.10;99.90;;;;;;5058025;28;20033;-71
2023/11/14 11:15:27;;;;;;;17.67;3.45;;;13.20;99.90;;;;;;5046739;28;20475;-70
2023/11/14 11:18:03;;;;;;;29.73;3.80;;;13.10;99.90;;;;;;5035445;23;20507;-93
2023/11/14 11:20:31;;;;;;;23.88;3.97;;;13.20;99.90;;;;;;5012888;28;20064;-93
2023/11/14 11:23:12;;;;;;;24.48;4.15;;;13.30;99.90;;;;;;4998951;28;20030;-93
2023/11/14 11:25:41;;;;;;;19.33;3.28;;;13.40;99.90;;;;;;4999074;28;20038;-96
2023/11/14 11:28:31;;;;;;;25.02;3.47;;;13.40;99.90;;;;;;5005089;28;20028;-93
2023/11/14 11:31:25;;;;;;;29.67;3.67;;;13.40;99.90;;;;;;5014183;28;20033;-93
2023/11/14 11:33:51;;;;;;;21.60;3.35;;;13.40;99.90;;;;;;4960388;28;20546;-93
2023/11/14 11:36:36;;;;;;;32.10;4.65;;;13.50;99.90;;;;;;4948777;28;20043;-92
2023/11/14 11:39:05;;;;;;;19.75;3.22;;;13.50;99.90;;;;;;4969434;28;20046;-93
2023/11/14 11:41:38;;;;;;;31.08;4.10;;;13.50;99.90;;;;;;4966591;28;20022;-92
2023/11/14 11:44:06;;;;;;;24.92;3.53;;;13.50;99.90;;;;;;4949878;28;20428;-93
2023/11/14 11:46:36;;;;;;;23.58;3.80;;;13.50;99.90;;;;;;4969782;28;20015;-95
2023/11/14 11:49:22;;;;;;;23.70;4.00;;;13.50;99.90;;;;;;4949735;28;20034;-92
2023/11/14 11:51:48;;;;;;;24.73;3.45;;;13.50;99.90;;;;;;4957941;28;20515;-92
2023/11/14 11:54:31;;;;;;;26.77;3.72;;;13.50;99.90;;;;;;4948720;28;20042;-93
2023/11/14 11:57:09;;;;;;;28.02;3.40;;;13.60;99.90;;;;;;4972001;28;20080;-92
2023/11/14 11:59:43;;;;;;;20.08;3.22;;;13.50;99.90;;;;;;4959133;28;20528;-93
2023/11/14 12:02:14;;;;;;;15.63;2.85;;;13.50;99.90;;;;;;4969103;28;20035;-93
2023/11/14 12:04:44;;;;;;;17.48;3.15;;;13.50;99.90;;;;;;4964756;28;20045;-92
2023/11/14 12:07:10;;;;;;;12.77;2.35;;;13.50;99.90;;;;;;4963691;28;20023;-93
2023/11/14 12:09:42;;;;;;;21.60;3.13;;;13.60;99.90;;;;;;4952688;28;20033;-92
2023/11/14 12:12:09;;;;;;;19.85;3.47;;;13.60;99.90;;;;;;4984987;28;20038;-94
2023/11/14 12:14:35;;;;;;;15.82;2.47;;;13.60;99.90;;;;;;5007981;28;20062;-93
2023/11/14 12:17:03;;;;;;;15.93;3.08;;;13.60;99.90;;;;;;4977525;28;20049;-93
2023/11/14 12:19:47;;;;;;;18.38;3.08;;;13.60;99.90;;;;;;5013338;28;20089;-93
2023/11/14 12:22:14;;;;;;;13.07;2.17;;;13.70;99.90;;;;;;4997885;28;20088;-93
2023/11/14 12:24:42;;;;;;;20.42;2.90;;;13.70;99.90;;;;;;5007093;28;20045;-92
2023/11/14 12:27:07;;;;;;;21.98;2.85;;;13.70;99.90;;;;;;5021879;28;20404;-93
2023/11/14 12:29:33;;;;;;;14.55;2.42;;;13.70;99.90;;;;;;5006251;28;20037;-93
2023/11/14 12:31:59;;;;;;;20.00;3.10;;;13.80;99.90;;;;;;4992183;28;20024;-92
2023/11/14 12:34:30;;;;;;;19.15;2.92;;;13.80;99.90;;;;;;4992553;28;20528;-93
2023/11/14 12:37:09;;;;;;;16.83;3.15;;;13.70;99.90;;;;;;4984199;28;20490;-93
2023/11/14 12:39:36;;;;;;;17.65;3.13;;;13.70;99.90;;;;;;5000582;28;20512;-92
2023/11/14 12:42:01;;;;;;;10.98;2.60;;;13.70;99.90;;;;;;4990600;28;20045;-93
2023/11/14 12:44:27;;;;;;;15.50;3.03;;;13.70;99.90;;;;;;5010690;28;20026;-92
2023/11/14 12:46:58;;;;;;;14.98;2.58;;;13.70;99.90;;;;;;4973425;28;20513;-93